Time;durP1;ratioP1;P1;durP2;ratioP2;P2;SDS_P1;SDS_P2;PMS_P1;PMS_P2;Temp;Humidity;BMP_temperature;BMP_pressure;BME280_temperature;BME280_humidity;BME280_pressure;Samples;Min_cycle;Max_cycle;Signal;HPM_P1;HPM_P2
2022/11/10 00:00:18;;;;;;;0.70;0.70;;;13.70;99.90;;;;;;4952944;28;20227;-62
2022/11/10 00:02:47;;;;;;;0.70;0.70;;;13.70;99.90;;;;;;4954290;29;20289;-62
2022/11/10 00:05:15;;;;;;;0.70;0.70;;;13.70;99.90;;;;;;4951077;28;20704;-62
2022/11/10 00:07:42;;;;;;;0.90;0.90;;;13.70;99.90;;;;;;4953453;28;20210;-62
2022/11/10 00:10:09;;;;;;;0.80;0.80;;;13.70;99.90;;;;;;4954855;29;20237;-62
2022/11/10 00:12:37;;;;;;;0.80;0.80;;;13.70;99.90;;;;;;4954980;28;20611;-62
2022/11/10 00:17:50;;;;;;;0.90;0.90;;;13.60;99.90;;;;;;4948629;28;20219;-62
2022/11/10 00:20:17;;;;;;;0.90;0.90;;;13.70;99.90;;;;;;4952979;28;20229;-62
2022/11/10 00:22:43;;;;;;;0.70;0.70;;;13.70;99.90;;;;;;4951089;28;20207;-62
2022/11/10 00:25:11;;;;;;;0.70;0.70;;;13.70;99.90;;;;;;4947005;28;20235;-62
2022/11/10 00:27:38;;;;;;;0.70;0.70;;;13.70;99.90;;;;;;4947251;29;20226;-62
2022/11/10 00:30:07;;;;;;;0.70;0.70;;;13.70;99.90;;;;;;4943368;28;20244;-62
2022/11/10 00:32:34;;;;;;;0.77;0.77;;;13.70;99.90;;;;;;4952009;29;20207;-62
2022/11/10 00:35:02;;;;;;;0.97;0.90;;;13.70;99.90;;;;;;4950022;28;20221;-62
2022/11/10 00:37:28;;;;;;;1.20;1.10;;;13.70;99.90;;;;;;4947580;28;20612;-62
2022/11/10 00:39:55;;;;;;;1.30;1.00;;;13.70;99.90;;;;;;4944358;29;20241;-61
2022/11/10 00:42:22;;;;;;;0.80;0.80;;;13.70;99.90;;;;;;4941196;28;20657;-62
2022/11/10 00:44:49;;;;;;;0.90;0.90;;;13.70;99.90;;;;;;4944994;28;20222;-61
2022/11/10 00:47:16;;;;;;;1.43;1.33;;;13.70;99.90;;;;;;4953616;28;20208;-62
2022/11/10 00:49:42;;;;;;;1.37;1.30;;;13.70;99.90;;;;;;4951719;28;20642;-63
2022/11/10 00:52:11;;;;;;;1.70;1.60;;;13.70;99.90;;;;;;4952120;29;20218;-63
2022/11/10 00:54:37;;;;;;;1.30;1.20;;;13.60;99.90;;;;;;4952471;28;20237;-63
2022/11/10 00:57:04;;;;;;;1.20;1.20;;;13.60;99.90;;;;;;4953385;28;20225;-62
2022/11/10 00:59:31;;;;;;;0.93;0.93;;;13.60;99.90;;;;;;4952123;28;20215;-63
2022/11/10 01:01:58;;;;;;;0.90;0.90;;;13.50;99.90;;;;;;4953283;28;20203;-64
2022/11/10 01:04:25;;;;;;;1.23;1.17;;;13.50;99.90;;;;;;4949535;28;20222;-63
2022/11/10 01:06:52;;;;;;;0.90;0.90;;;13.50;99.90;;;;;;4951935;29;20214;-63
2022/11/10 01:09:20;;;;;;;0.97;0.97;;;13.40;99.90;;;;;;4953159;28;20226;-63
2022/11/10 01:11:47;;;;;;;0.90;0.90;;;13.40;99.90;;;;;;4949547;29;20223;-63
2022/11/10 01:14:13;;;;;;;1.00;1.00;;;13.40;99.90;;;;;;4950902;28;20207;-64
2022/11/10 01:16:40;;;;;;;1.00;0.90;;;13.30;99.90;;;;;;4954406;28;20223;-63
2022/11/10 01:19:07;;;;;;;0.80;0.80;;;13.40;99.90;;;;;;4952141;28;20663;-63
2022/11/10 01:21:34;;;;;;;0.87;0.87;;;13.50;99.90;;;;;;4951519;28;20250;-63
2022/11/10 01:24:01;;;;;;;1.07;1.07;;;13.50;99.90;;;;;;4952142;28;20202;-62
2022/11/10 01:26:29;;;;;;;0.63;0.63;;;13.50;99.90;;;;;;4952669;29;20692;-61
2022/11/10 01:28:57;;;;;;;1.00;1.00;;;13.40;99.90;;;;;;4952019;29;20294;-61
2022/11/10 01:31:23;;;;;;;1.00;1.00;;;13.40;99.90;;;;;;4953253;28;20319;-63
2022/11/10 01:33:50;;;;;;;0.77;0.77;;;13.30;99.90;;;;;;4952475;29;20215;-62
2022/11/10 01:36:17;;;;;;;1.03;0.93;;;13.30;99.90;;;;;;4951837;28;20225;-64
2022/11/10 01:38:44;;;;;;;0.90;0.90;;;13.30;99.90;;;;;;4953364;29;20199;-62
2022/11/10 01:41:13;;;;;;;1.00;1.00;;;13.30;99.90;;;;;;4944693;28;20257;-62
2022/11/10 01:43:41;;;;;;;0.87;0.83;;;13.30;99.90;;;;;;4949684;28;20301;-63
2022/11/10 01:46:11;;;;;;;0.60;0.60;;;13.30;99.90;;;;;;4969075;28;20294;-63
2022/11/10 01:48:42;;;;;;;0.70;0.70;;;13.30;99.90;;;;;;4973836;28;20271;-62
2022/11/10 01:51:14;;;;;;;0.63;0.63;;;13.20;99.90;;;;;;4972326;29;20266;-62
2022/11/10 01:53:44;;;;;;;1.03;0.70;;;13.20;99.90;;;;;;4970283;29;20356;-63
2022/11/10 01:56:14;;;;;;;1.33;0.80;;;13.20;99.90;;;;;;4969543;29;20314;-61
2022/11/10 01:58:48;;;;;;;0.60;0.60;;;13.20;99.90;;;;;;4954008;29;20208;-62
2022/11/10 02:01:16;;;;;;;0.80;0.80;;;13.20;99.90;;;;;;4953580;29;20245;-62
2022/11/10 02:03:47;;;;;;;0.80;0.80;;;13.20;99.90;;;;;;4952761;28;20214;-61
2022/11/10 02:06:15;;;;;;;0.97;0.83;;;13.20;99.90;;;;;;4953788;28;20286;-63
2022/11/10 02:08:43;;;;;;;0.80;0.80;;;13.20;99.90;;;;;;4955669;28;20208;-61
2022/11/10 02:11:10;;;;;;;0.97;0.97;;;13.20;99.90;;;;;;4956595;28;20254;-62
2022/11/10 02:13:37;;;;;;;1.03;1.00;;;13.20;99.90;;;;;;4955553;28;20663;-64
2022/11/10 02:16:06;;;;;;;0.80;0.80;;;13.20;99.90;;;;;;4956589;28;20203;-62
2022/11/10 02:18:32;;;;;;;0.90;0.90;;;13.20;99.90;;;;;;4956487;28;20242;-62
2022/11/10 02:21:04;;;;;;;0.80;0.80;;;13.20;99.90;;;;;;4956585;29;20227;-62
2022/11/10 02:23:46;;;;;;;1.00;1.00;;;13.20;99.90;;;;;;4955690;28;20219;-62
2022/11/10 02:26:15;;;;;;;0.77;0.77;;;13.20;99.90;;;;;;4956702;28;20199;-64
2022/11/10 02:28:42;;;;;;;1.10;1.03;;;13.20;99.90;;;;;;4956551;29;20298;-64
2022/11/10 02:31:09;;;;;;;0.60;0.60;;;13.30;99.90;;;;;;4956029;28;20231;-63
2022/11/10 02:33:36;;;;;;;0.90;0.90;;;13.40;99.90;;;;;;4955616;28;20302;-64
2022/11/10 02:36:05;;;;;;;0.77;0.77;;;13.40;99.90;;;;;;4956433;28;20204;-64
2022/11/10 02:38:32;;;;;;;0.80;0.80;;;13.40;99.90;;;;;;4952153;28;20217;-64
2022/11/10 02:40:59;;;;;;;0.67;0.67;;;13.50;99.90;;;;;;4956159;28;20690;-63
2022/11/10 02:43:26;;;;;;;0.67;0.67;;;13.50;99.90;;;;;;5085003;23;20236;-64
2022/11/10 02:45:53;;;;;;;0.70;0.70;;;13.40;99.90;;;;;;5020608;28;20233;-63
2022/11/10 02:48:20;;;;;;;0.90;0.90;;;13.40;99.90;;;;;;5022709;28;20260;-65
2022/11/10 02:50:46;;;;;;;0.70;0.70;;;13.40;99.90;;;;;;5024715;28;20205;-64
2022/11/10 02:53:15;;;;;;;0.80;0.80;;;13.50;99.90;;;;;;5028829;28;20221;-65
2022/11/10 02:55:42;;;;;;;1.00;0.90;;;13.50;99.90;;;;;;5021974;28;20213;-64
2022/11/10 02:58:09;;;;;;;0.77;0.77;;;13.50;99.90;;;;;;5020671;28;20695;-64
2022/11/10 03:00:36;;;;;;;0.90;0.90;;;13.50;99.90;;;;;;5017927;28;20598;-64
2022/11/10 03:03:03;;;;;;;0.77;0.77;;;13.50;99.90;;;;;;5015333;28;20262;-64
2022/11/10 03:05:31;;;;;;;0.83;0.83;;;13.40;99.90;;;;;;5013876;28;20205;-65
2022/11/10 03:08:00;;;;;;;0.50;0.50;;;13.40;99.90;;;;;;5014082;28;20208;-64
2022/11/10 03:10:29;;;;;;;0.83;0.83;;;13.50;99.90;;;;;;5013826;28;20293;-64
2022/11/10 03:12:58;;;;;;;0.70;0.70;;;13.30;99.90;;;;;;5013887;28;20781;-65
2022/11/10 03:15:25;;;;;;;0.60;0.60;;;13.20;99.90;;;;;;5013421;28;20204;-65
2022/11/10 03:17:52;;;;;;;0.70;0.70;;;13.20;99.90;;;;;;5013590;28;20221;-65
2022/11/10 03:20:19;;;;;;;0.70;0.70;;;13.10;99.90;;;;;;5012825;28;20209;-63
2022/11/10 03:22:47;;;;;;;0.60;0.60;;;13.10;99.90;;;;;;5013910;28;20202;-64
2022/11/10 03:25:13;;;;;;;0.67;0.67;;;13.00;99.90;;;;;;5013348;28;20197;-65
2022/11/10 03:27:42;;;;;;;0.90;0.90;;;13.10;99.90;;;;;;5019710;28;20202;-64
2022/11/10 03:30:09;;;;;;;1.00;0.90;;;13.10;99.90;;;;;;5022112;28;20246;-64
2022/11/10 03:32:36;;;;;;;0.70;0.70;;;13.10;99.90;;;;;;5023188;28;20209;-64
2022/11/10 03:35:04;;;;;;;0.57;0.57;;;13.10;99.90;;;;;;5022587;28;20205;-63
2022/11/10 03:37:31;;;;;;;0.83;0.83;;;13.10;99.90;;;;;;5021083;28;20220;-64
2022/11/10 03:39:57;;;;;;;0.70;0.70;;;13.10;99.90;;;;;;5015699;28;20205;-63
2022/11/10 03:42:24;;;;;;;0.80;0.80;;;13.10;99.90;;;;;;5014989;28;20202;-63
2022/11/10 03:44:53;;;;;;;0.63;0.63;;;13.30;99.90;;;;;;5016680;28;20608;-63
2022/11/10 03:47:19;;;;;;;0.80;0.80;;;13.30;99.90;;;;;;5014749;28;20239;-63
2022/11/10 03:49:46;;;;;;;1.43;0.83;;;13.30;99.90;;;;;;5013609;28;20236;-64
2022/11/10 03:52:13;;;;;;;0.67;0.67;;;13.30;99.90;;;;;;5014184;28;20206;-63
2022/11/10 03:54:40;;;;;;;0.60;0.60;;;13.20;99.90;;;;;;5018126;28;20229;-63
2022/11/10 03:57:07;;;;;;;0.70;0.63;;;13.20;99.90;;;;;;5009751;28;20228;-63
2022/11/10 03:59:34;;;;;;;1.03;0.70;;;13.20;99.90;;;;;;5013500;28;20267;-63
2022/11/10 04:02:02;;;;;;;0.73;0.73;;;13.10;99.90;;;;;;5015115;28;20215;-63
2022/11/10 04:09:58;;;;;;;0.77;0.77;;;12.90;99.90;;;;;;5007691;28;20244;-64
2022/11/10 04:18:19;;;;;;;0.67;0.67;;;12.70;99.90;;;;;;5014214;28;20219;-65
2022/11/10 04:20:45;;;;;;;0.87;0.87;;;12.60;99.90;;;;;;5013509;28;20726;-65
2022/11/10 04:23:27;;;;;;;0.93;0.90;;;12.50;99.90;;;;;;5013733;28;20218;-64
2022/11/10 04:28:40;;;;;;;0.80;0.80;;;12.30;99.90;;;;;;5012977;28;20244;-63
2022/11/10 04:31:08;;;;;;;0.90;0.90;;;12.20;99.90;;;;;;5012292;28;20201;-63
2022/11/10 04:33:37;;;;;;;0.87;0.87;;;12.20;99.90;;;;;;5012219;28;20291;-64
2022/11/10 04:36:05;;;;;;;1.20;1.10;;;12.20;99.90;;;;;;5012876;28;20281;-63
2022/11/10 04:38:32;;;;;;;0.80;0.80;;;12.10;99.90;;;;;;5013013;28;20225;-65
2022/11/10 04:40:58;;;;;;;0.90;0.80;;;12.00;99.90;;;;;;5013668;28;20212;-64
2022/11/10 04:43:25;;;;;;;1.10;0.90;;;12.00;99.90;;;;;;5012630;28;20237;-65
2022/11/10 04:45:52;;;;;;;0.70;0.70;;;12.00;99.90;;;;;;5012922;28;20201;-63
2022/11/10 04:48:20;;;;;;;0.70;0.70;;;11.90;99.90;;;;;;5013090;28;20256;-64
2022/11/10 04:50:48;;;;;;;1.00;0.90;;;11.80;99.90;;;;;;5012644;28;20201;-63
2022/11/10 04:53:15;;;;;;;0.90;0.90;;;11.80;99.90;;;;;;5012729;28;20221;-64
2022/11/10 04:55:43;;;;;;;0.80;0.80;;;11.70;99.90;;;;;;5012095;28;20223;-63
2022/11/10 04:58:10;;;;;;;1.23;1.13;;;11.70;99.90;;;;;;5012420;28;20222;-64
2022/11/10 05:00:37;;;;;;;2.80;1.30;;;11.70;99.90;;;;;;5013270;28;20206;-63
2022/11/10 05:03:06;;;;;;;1.23;1.13;;;11.70;99.90;;;;;;5013943;28;20232;-65
2022/11/10 05:05:33;;;;;;;1.30;1.20;;;11.70;99.90;;;;;;5013156;28;20296;-65
2022/11/10 05:08:03;;;;;;;1.07;1.07;;;11.70;99.90;;;;;;5014840;28;20211;-63
2022/11/10 05:10:29;;;;;;;1.00;1.00;;;11.70;99.90;;;;;;5014833;28;20331;-63
2022/11/10 05:12:57;;;;;;;1.10;1.00;;;11.70;99.90;;;;;;5017408;28;20308;-64
2022/11/10 05:15:25;;;;;;;0.90;0.90;;;11.70;99.90;;;;;;5013952;28;20213;-64
2022/11/10 05:17:53;;;;;;;1.03;1.03;;;11.70;99.90;;;;;;5017361;28;20316;-62
2022/11/10 05:20:22;;;;;;;1.00;1.00;;;11.70;99.90;;;;;;5015735;28;20289;-64
2022/11/10 05:25:32;;;;;;;0.77;0.77;;;11.70;99.90;;;;;;5011090;28;20827;-64
2022/11/10 05:27:59;;;;;;;0.87;0.87;;;11.60;99.90;;;;;;5012295;28;20197;-65
2022/11/10 05:30:26;;;;;;;1.37;1.10;;;11.50;99.90;;;;;;5012253;28;20205;-63
2022/11/10 05:32:52;;;;;;;1.37;1.10;;;11.40;99.90;;;;;;5011678;28;20217;-63
2022/11/10 05:35:20;;;;;;;1.20;1.10;;;11.30;99.90;;;;;;5011827;28;20638;-65
2022/11/10 05:37:47;;;;;;;1.17;1.07;;;11.20;99.90;;;;;;5014251;28;20632;-64
2022/11/10 05:40:14;;;;;;;1.07;1.03;;;11.20;99.90;;;;;;5012518;28;20651;-63
2022/11/10 05:42:46;;;;;;;0.80;0.80;;;11.10;99.90;;;;;;5012597;28;20300;-64
2022/11/10 05:45:13;;;;;;;0.83;0.83;;;11.10;99.90;;;;;;5016040;28;20201;-63
2022/11/10 05:47:40;;;;;;;0.83;0.83;;;11.00;99.90;;;;;;5019116;28;20197;-64
2022/11/10 05:50:09;;;;;;;0.80;0.80;;;10.90;99.90;;;;;;5022074;28;20304;-64
2022/11/10 05:52:39;;;;;;;0.80;0.80;;;10.90;99.90;;;;;;5017328;28;20232;-64
2022/11/10 05:55:06;;;;;;;0.97;0.93;;;10.90;99.90;;;;;;5010450;28;20201;-65
2022/11/10 05:57:33;;;;;;;0.80;0.80;;;10.80;99.90;;;;;;5016043;28;20225;-63
2022/11/10 06:00:02;;;;;;;0.97;0.97;;;10.80;99.90;;;;;;5015944;28;20205;-63
2022/11/10 06:02:29;;;;;;;1.17;0.90;;;10.70;99.90;;;;;;5016408;28;20284;-63
2022/11/10 06:04:55;;;;;;;0.77;0.77;;;10.70;99.90;;;;;;5016666;28;20229;-64
2022/11/10 06:07:22;;;;;;;0.70;0.70;;;10.70;99.90;;;;;;5015905;28;20211;-64
2022/11/10 06:09:49;;;;;;;1.00;1.00;;;10.70;99.90;;;;;;5016140;28;20198;-64
2022/11/10 06:12:16;;;;;;;0.90;0.90;;;10.70;99.90;;;;;;5016056;28;20232;-63
2022/11/10 06:14:43;;;;;;;0.80;0.80;;;10.60;99.90;;;;;;5015572;28;20656;-64
2022/11/10 06:17:11;;;;;;;1.00;1.00;;;10.60;99.90;;;;;;5022867;28;20201;-63
2022/11/10 06:19:38;;;;;;;1.17;1.00;;;10.70;99.90;;;;;;5020347;28;20292;-63
2022/11/10 06:22:05;;;;;;;0.90;0.90;;;10.70;99.90;;;;;;5016084;28;20202;-63
2022/11/10 06:24:31;;;;;;;1.00;1.00;;;10.60;99.90;;;;;;5015358;28;20225;-64
2022/11/10 06:26:58;;;;;;;1.20;1.10;;;10.70;99.90;;;;;;5015813;28;20220;-63
2022/11/10 06:29:25;;;;;;;1.33;0.90;;;10.60;99.90;;;;;;5015957;28;20207;-63
2022/11/10 06:31:52;;;;;;;1.30;1.30;;;10.70;99.90;;;;;;5016574;28;20604;-63
2022/11/10 06:34:20;;;;;;;1.30;1.20;;;10.70;99.90;;;;;;5014879;28;20240;-65
2022/11/10 06:36:47;;;;;;;1.30;1.30;;;10.70;99.90;;;;;;5024919;28;20201;-65
2022/11/10 06:39:14;;;;;;;1.00;1.00;;;10.80;99.90;;;;;;5011575;28;20759;-64
2022/11/10 06:41:40;;;;;;;1.00;1.00;;;10.80;99.90;;;;;;5015850;28;20292;-66
2022/11/10 06:44:07;;;;;;;1.10;1.10;;;10.80;99.90;;;;;;5016685;28;20229;-67
2022/11/10 06:46:34;;;;;;;1.10;1.10;;;10.80;99.90;;;;;;5020820;28;20211;-66
2022/11/10 06:49:01;;;;;;;1.30;1.20;;;10.80;99.90;;;;;;5027279;28;20193;-66
2022/11/10 06:51:30;;;;;;;0.90;0.90;;;10.70;99.90;;;;;;5021438;28;20205;-66
2022/11/10 06:53:56;;;;;;;1.10;1.10;;;10.80;99.90;;;;;;5023400;28;20289;-65
2022/11/10 06:56:23;;;;;;;0.83;0.83;;;10.70;99.90;;;;;;5016962;28;20600;-64
2022/11/10 06:58:50;;;;;;;0.90;0.90;;;10.60;99.90;;;;;;5014121;28;20217;-65
2022/11/10 07:01:17;;;;;;;0.70;0.70;;;10.60;99.90;;;;;;5014053;28;20231;-65
2022/11/10 07:03:44;;;;;;;0.90;0.90;;;10.60;99.90;;;;;;5013282;28;20231;-63
2022/11/10 07:06:10;;;;;;;1.47;1.37;;;10.60;99.90;;;;;;5009848;28;20197;-65
2022/11/10 07:08:39;;;;;;;1.30;1.20;;;10.60;99.90;;;;;;5013151;28;20289;-65
2022/11/10 07:11:05;;;;;;;1.10;1.10;;;10.60;99.90;;;;;;5014118;28;20213;-64
2022/11/10 07:13:32;;;;;;;1.40;1.30;;;10.60;99.90;;;;;;5011516;28;20621;-65
2022/11/10 07:15:59;;;;;;;1.60;1.50;;;10.90;99.90;;;;;;5013976;28;20668;-64
2022/11/10 07:18:26;;;;;;;1.47;1.37;;;10.70;99.90;;;;;;5010953;28;20240;-64
2022/11/10 07:20:53;;;;;;;1.47;1.37;;;10.70;99.90;;;;;;5013526;28;20208;-65
2022/11/10 07:23:19;;;;;;;1.73;1.63;;;10.60;99.90;;;;;;5013977;28;20255;-66
2022/11/10 07:25:47;;;;;;;1.93;1.80;;;10.60;99.90;;;;;;5012471;28;20214;-65
2022/11/10 07:28:14;;;;;;;1.60;1.50;;;10.50;99.90;;;;;;5010545;28;20294;-65
2022/11/10 07:30:41;;;;;;;2.30;1.57;;;10.50;99.90;;;;;;5014670;28;20766;-64
2022/11/10 07:33:11;;;;;;;1.10;1.10;;;10.50;99.90;;;;;;5014873;28;20221;-66
2022/11/10 07:35:39;;;;;;;1.20;1.10;;;10.60;99.90;;;;;;5009882;28;20315;-63
2022/11/10 07:38:07;;;;;;;1.20;1.20;;;10.60;99.90;;;;;;5009892;28;20221;-65
2022/11/10 07:40:34;;;;;;;0.90;0.90;;;10.60;99.90;;;;;;5011514;28;20224;-65
2022/11/10 07:43:02;;;;;;;0.80;0.80;;;10.70;99.90;;;;;;5013285;28;20320;-65
2022/11/10 07:45:29;;;;;;;0.90;0.90;;;10.70;99.90;;;;;;5012185;28;20526;-63
2022/11/10 07:47:59;;;;;;;1.03;1.00;;;10.80;99.90;;;;;;5012845;28;20201;-65
2022/11/10 07:50:25;;;;;;;1.10;1.10;;;10.90;99.90;;;;;;5012866;28;20228;-65
2022/11/10 07:52:52;;;;;;;1.43;1.33;;;11.00;99.90;;;;;;5013554;28;20320;-65
2022/11/10 07:55:20;;;;;;;1.33;1.27;;;11.00;99.90;;;;;;5004378;28;20239;-66
2022/11/10 07:57:47;;;;;;;1.37;1.27;;;11.10;99.90;;;;;;5011135;28;20579;-65
2022/11/10 08:00:17;;;;;;;1.40;1.30;;;11.20;99.90;;;;;;5008362;28;20213;-64
2022/11/10 08:02:44;;;;;;;1.40;1.30;;;11.30;99.90;;;;;;5009198;28;20239;-65
2022/11/10 08:05:10;;;;;;;1.00;1.00;;;11.40;99.90;;;;;;5012124;28;20288;-65
2022/11/10 08:07:37;;;;;;;0.73;0.73;;;11.40;99.90;;;;;;5011341;28;20209;-65
2022/11/10 08:10:05;;;;;;;0.90;0.90;;;11.40;99.90;;;;;;5015228;28;20205;-66
2022/11/10 08:12:31;;;;;;;0.90;0.90;;;11.50;99.90;;;;;;5014679;28;20215;-63
2022/11/10 08:14:58;;;;;;;0.90;0.90;;;11.70;99.90;;;;;;5014604;28;20240;-66
2022/11/10 08:17:27;;;;;;;0.80;0.80;;;11.80;99.90;;;;;;5014676;28;20233;-65
2022/11/10 08:19:54;;;;;;;0.77;0.77;;;11.80;99.90;;;;;;5013465;28;20239;-65
2022/11/10 08:22:20;;;;;;;0.87;0.87;;;12.00;99.90;;;;;;5013010;28;20211;-64
2022/11/10 08:24:47;;;;;;;1.00;1.00;;;12.10;99.90;;;;;;5010668;28;20612;-65
2022/11/10 08:27:14;;;;;;;0.80;0.80;;;12.20;99.90;;;;;;5009379;28;20209;-64
2022/11/10 08:29:41;;;;;;;0.83;0.83;;;12.40;99.90;;;;;;5010642;28;20328;-66
2022/11/10 08:32:08;;;;;;;0.80;0.80;;;12.50;99.90;;;;;;5007703;28;20288;-63
2022/11/10 08:34:36;;;;;;;0.70;0.70;;;12.60;99.90;;;;;;5014423;28;20245;-65
2022/11/10 08:37:03;;;;;;;0.70;0.70;;;12.70;99.90;;;;;;5013095;28;20205;-65
2022/11/10 08:39:30;;;;;;;0.70;0.70;;;12.80;99.90;;;;;;5011734;28;20675;-65
2022/11/10 08:41:56;;;;;;;0.90;0.90;;;12.80;99.90;;;;;;5014803;28;20572;-64
2022/11/10 08:44:23;;;;;;;0.80;0.80;;;12.90;99.90;;;;;;5011973;28;20231;-66
2022/11/10 08:46:51;;;;;;;0.70;0.70;;;12.90;99.90;;;;;;5012828;28;20205;-64
2022/11/10 08:49:17;;;;;;;0.70;0.70;;;13.10;99.90;;;;;;5008888;28;20205;-64
2022/11/10 08:51:46;;;;;;;0.70;0.70;;;13.20;99.90;;;;;;5013218;28;20212;-65
2022/11/10 08:54:12;;;;;;;0.90;0.90;;;13.30;99.90;;;;;;5013941;28;20229;-64
2022/11/10 08:56:39;;;;;;;0.70;0.70;;;13.30;99.90;;;;;;5016767;28;20734;-65
2022/11/10 08:59:06;;;;;;;0.70;0.70;;;13.40;99.90;;;;;;5017086;28;20229;-65
2022/11/10 09:01:33;;;;;;;0.70;0.70;;;13.50;99.90;;;;;;5014599;28;20200;-66
2022/11/10 09:04:00;;;;;;;0.53;0.53;;;13.60;99.90;;;;;;5014398;28;20588;-64
2022/11/10 09:06:27;;;;;;;0.70;0.70;;;13.60;99.90;;;;;;5013401;28;20698;-67
2022/11/10 09:08:55;;;;;;;0.60;0.60;;;13.70;99.90;;;;;;5011123;28;20284;-67
2022/11/10 09:11:22;;;;;;;0.50;0.50;;;13.80;99.90;;;;;;5011285;28;20202;-64
2022/11/10 09:13:49;;;;;;;0.67;0.67;;;13.90;99.90;;;;;;5010320;28;20223;-64
2022/11/10 09:16:16;;;;;;;0.70;0.70;;;13.90;99.90;;;;;;5012157;28;20571;-65
2022/11/10 09:18:43;;;;;;;0.70;0.70;;;13.90;99.90;;;;;;5010433;28;20699;-66
2022/11/10 09:21:10;;;;;;;0.60;0.60;;;14.00;99.90;;;;;;5014126;28;20218;-64
2022/11/10 09:23:38;;;;;;;0.90;0.90;;;14.10;99.90;;;;;;5029602;28;20225;-66
2022/11/10 09:26:06;;;;;;;0.50;0.50;;;14.30;99.90;;;;;;5023140;28;20292;-66
2022/11/10 09:28:34;;;;;;;0.70;0.70;;;14.40;99.90;;;;;;5024907;28;20249;-64
2022/11/10 09:31:01;;;;;;;0.70;0.70;;;14.60;99.90;;;;;;5016548;28;20197;-66
2022/11/10 09:33:28;;;;;;;0.97;0.70;;;14.60;99.90;;;;;;5012413;28;20231;-66
2022/11/10 09:35:58;;;;;;;0.80;0.70;;;14.60;99.90;;;;;;5011999;28;20690;-67
2022/11/10 09:38:25;;;;;;;0.70;0.70;;;14.70;99.90;;;;;;5013057;28;20220;-65
2022/11/10 09:41:01;;;;;;;0.70;0.70;;;14.80;99.90;;;;;;5015042;28;20221;-65
2022/11/10 09:43:37;;;;;;;0.70;0.70;;;14.90;99.90;;;;;;5011960;28;20319;-65
2022/11/10 09:46:11;;;;;;;0.90;0.90;;;15.00;99.90;;;;;;5011794;28;20205;-66
2022/11/10 09:48:45;;;;;;;0.60;0.60;;;15.00;99.90;;;;;;5011376;28;20196;-64
2022/11/10 09:51:17;;;;;;;0.70;0.70;;;15.10;99.90;;;;;;5015147;28;20248;-65
2022/11/10 09:53:50;;;;;;;0.70;0.70;;;15.20;99.90;;;;;;5012522;28;20332;-66
2022/11/10 09:56:21;;;;;;;0.70;0.70;;;15.40;99.90;;;;;;5013669;28;20201;-64
2022/11/10 09:58:50;;;;;;;0.57;0.57;;;15.40;99.90;;;;;;5011962;28;20225;-65
2022/11/10 10:01:34;;;;;;;0.70;0.70;;;15.30;99.90;;;;;;5004840;28;20220;-65
2022/11/10 10:04:15;;;;;;;0.90;0.90;;;15.30;99.90;;;;;;5011602;28;20593;-65
2022/11/10 10:06:48;;;;;;;1.00;1.00;;;15.40;99.90;;;;;;5012239;28;20288;-65
2022/11/10 10:09:27;;;;;;;0.73;0.73;;;15.40;99.90;;;;;;5009878;28;20197;-64
2022/11/10 10:12:02;;;;;;;0.87;0.87;;;15.50;99.90;;;;;;5012924;28;20211;-65
2022/11/10 10:14:47;;;;;;;0.70;0.70;;;15.70;99.90;;;;;;5011684;28;20223;-65
2022/11/10 10:17:22;;;;;;;0.43;0.43;;;15.80;99.90;;;;;;5012595;28;20217;-65
2022/11/10 10:19:56;;;;;;;0.43;0.43;;;15.80;99.90;;;;;;5012836;28;20612;-66
2022/11/10 10:22:43;;;;;;;0.87;0.73;;;15.70;99.90;;;;;;5005839;28;20211;-65
2022/11/10 10:25:14;;;;;;;0.70;0.70;;;15.60;99.90;;;;;;5023489;28;20264;-65
2022/11/10 10:27:44;;;;;;;1.00;1.00;;;15.50;99.90;;;;;;5024552;28;20783;-66
2022/11/10 10:30:17;;;;;;;0.80;0.80;;;15.40;99.90;;;;;;5022444;28;20596;-65
2022/11/10 10:32:44;;;;;;;0.80;0.80;;;15.40;99.90;;;;;;5021141;28;20216;-66
2022/11/10 10:35:15;;;;;;;1.00;0.90;;;15.20;99.90;;;;;;5015788;28;20229;-64
2022/11/10 10:37:46;;;;;;;0.90;0.90;;;15.10;99.90;;;;;;5020984;23;20890;-64
2022/11/10 10:40:18;;;;;;;0.50;0.50;;;15.00;99.90;;;;;;5007812;28;20313;-64
2022/11/10 10:42:46;;;;;;;0.60;0.60;;;14.90;99.90;;;;;;5014383;28;20705;-64
2022/11/10 10:45:19;;;;;;;0.57;0.57;;;14.90;99.90;;;;;;5013597;28;20201;-64
2022/11/10 10:47:48;;;;;;;0.67;0.67;;;14.80;99.90;;;;;;5014660;28;20310;-63
2022/11/10 10:50:25;;;;;;;1.03;0.70;;;14.90;99.90;;;;;;5014636;28;20562;-64
2022/11/10 10:53:13;;;;;;;0.70;0.70;;;14.70;99.90;;;;;;5012992;28;20200;-63
2022/11/10 10:55:46;;;;;;;0.80;0.80;;;14.70;99.90;;;;;;5014211;28;20569;-63
2022/11/10 10:58:22;;;;;;;0.40;0.40;;;14.60;99.90;;;;;;5011036;28;20239;-64
2022/11/10 11:00:52;;;;;;;0.60;0.60;;;14.60;99.90;;;;;;5015686;28;20207;-63
2022/11/10 11:03:27;;;;;;;0.67;0.67;;;14.60;99.90;;;;;;5011219;28;20209;-63
2022/11/10 11:06:07;;;;;;;0.70;0.70;;;14.60;99.90;;;;;;5007200;28;20663;-63
2022/11/10 11:08:34;;;;;;;0.93;0.93;;;14.60;99.90;;;;;;5013866;28;20229;-63
2022/11/10 11:11:09;;;;;;;0.60;0.60;;;14.80;99.90;;;;;;5007927;28;20652;-63
2022/11/10 11:13:37;;;;;;;0.70;0.70;;;14.90;99.90;;;;;;5011995;28;20204;-64
2022/11/10 11:16:08;;;;;;;0.70;0.70;;;15.10;99.90;;;;;;5015393;28;20209;-62
2022/11/10 11:18:38;;;;;;;0.70;0.70;;;15.10;99.90;;;;;;5013972;28;20308;-63
2022/11/10 11:21:14;;;;;;;0.70;0.70;;;15.10;99.90;;;;;;5014161;28;20668;-64
2022/11/10 11:24:16;;;;;;;0.70;0.70;;;15.30;99.90;;;;;;5012522;28;20581;-62
2022/11/10 11:26:51;;;;;;;0.70;0.70;;;15.30;99.90;;;;;;5010499;28;20204;-64
2022/11/10 11:29:34;;;;;;;0.63;0.63;;;15.20;99.90;;;;;;5014118;28;20203;-63
2022/11/10 11:32:24;;;;;;;0.90;0.80;;;15.10;99.90;;;;;;5012542;28;20256;-64
2022/11/10 11:35:00;;;;;;;0.97;0.90;;;15.10;99.90;;;;;;5006203;28;20594;-64
2022/11/10 11:37:33;;;;;;;0.70;0.70;;;15.10;99.90;;;;;;5010925;28;20268;-62
2022/11/10 11:40:14;;;;;;;0.63;0.63;;;15.20;99.90;;;;;;5012740;28;20217;-63
2022/11/10 11:42:51;;;;;;;0.67;0.67;;;15.50;99.90;;;;;;5012670;28;20201;-64
2022/11/10 11:45:23;;;;;;;0.87;0.87;;;15.40;99.90;;;;;;5012538;28;20217;-64
2022/11/10 11:48:10;;;;;;;0.90;0.90;;;15.50;99.90;;;;;;5005467;28;20730;-65
2022/11/10 11:50:43;;;;;;;2.07;0.63;;;15.50;99.90;;;;;;5013833;28;20205;-64
2022/11/10 11:53:21;;;;;;;0.80;0.80;;;15.50;99.90;;;;;;5013806;28;20274;-64
2022/11/10 11:56:03;;;;;;;0.60;0.60;;;15.50;99.90;;;;;;5012586;28;20201;-63
2022/11/10 11:58:42;;;;;;;0.60;0.60;;;15.50;99.90;;;;;;5013418;28;20320;-62
2022/11/10 12:01:23;;;;;;;0.70;0.70;;;15.40;99.90;;;;;;5013378;28;20203;-64
2022/11/10 12:04:21;;;;;;;0.80;0.80;;;15.50;99.90;;;;;;5005629;28;20200;-65
2022/11/10 12:06:59;;;;;;;0.90;0.90;;;15.50;99.90;;;;;;5012149;28;20284;-64
2022/11/10 12:09:37;;;;;;;0.70;0.70;;;15.60;99.90;;;;;;5013058;28;20201;-64
2022/11/10 12:12:26;;;;;;;0.70;0.70;;;15.60;99.90;;;;;;5012893;28;20213;-64
2022/11/10 12:15:03;;;;;;;0.63;0.63;;;15.70;99.90;;;;;;5009719;28;20237;-63
2022/11/10 12:17:42;;;;;;;0.67;0.67;;;15.70;99.90;;;;;;5013177;28;20781;-63
2022/11/10 12:20:23;;;;;;;0.60;0.60;;;15.60;99.90;;;;;;5007588;28;20301;-64
2022/11/10 12:22:58;;;;;;;1.00;1.00;;;15.60;99.90;;;;;;5012951;28;20207;-64
2022/11/10 12:25:31;;;;;;;0.70;0.70;;;15.70;99.90;;;;;;5020346;28;20683;-63
2022/11/10 12:28:06;;;;;;;0.70;0.70;;;15.80;99.90;;;;;;5013776;28;20221;-63
2022/11/10 12:30:35;;;;;;;0.60;0.60;;;15.80;99.90;;;;;;5013598;28;20618;-64
2022/11/10 12:33:07;;;;;;;0.80;0.80;;;15.80;99.90;;;;;;5013618;28;20207;-64
2022/11/10 12:35:38;;;;;;;0.63;0.63;;;15.90;99.90;;;;;;5012477;28;20307;-63
2022/11/10 12:38:11;;;;;;;0.70;0.70;;;15.90;99.90;;;;;;5013697;28;20235;-63
2022/11/10 12:40:42;;;;;;;0.70;0.70;;;15.90;99.90;;;;;;5018469;28;20659;-64
2022/11/10 12:43:17;;;;;;;0.70;0.70;;;15.90;99.90;;;;;;5013063;28;20205;-64
2022/11/10 12:45:49;;;;;;;0.60;0.60;;;16.00;99.90;;;;;;5012300;28;20233;-65
2022/11/10 12:48:18;;;;;;;0.67;0.67;;;16.00;99.90;;;;;;5013528;28;20225;-63
2022/11/10 12:50:54;;;;;;;0.90;0.90;;;16.10;99.90;;;;;;5013392;28;20205;-63
2022/11/10 12:53:24;;;;;;;0.50;0.50;;;16.20;99.90;;;;;;5012493;28;20207;-65
2022/11/10 12:55:55;;;;;;;0.70;0.70;;;16.20;99.90;;;;;;5008763;28;20209;-65
2022/11/10 12:58:22;;;;;;;0.57;0.57;;;16.20;99.90;;;;;;5012585;28;20360;-65
2022/11/10 13:00:57;;;;;;;0.60;0.60;;;16.20;99.90;;;;;;5012050;28;20308;-64
2022/11/10 13:03:30;;;;;;;0.60;0.60;;;16.30;99.90;;;;;;5012510;28;20212;-65
2022/11/10 13:06:01;;;;;;;0.57;0.57;;;16.40;99.90;;;;;;5008640;28;20197;-65
2022/11/10 13:08:33;;;;;;;0.60;0.60;;;16.40;99.90;;;;;;5004252;28;20229;-64
2022/11/10 13:11:07;;;;;;;0.60;0.60;;;16.50;99.90;;;;;;5012303;28;20201;-66
2022/11/10 13:13:41;;;;;;;0.50;0.50;;;16.40;99.90;;;;;;5011629;28;20216;-65
2022/11/10 13:16:10;;;;;;;0.63;0.63;;;16.50;99.90;;;;;;5012042;28;20201;-65
2022/11/10 13:18:54;;;;;;;0.57;0.57;;;16.50;99.90;;;;;;5012505;28;20229;-66